KEAR

Kearney Regional Airport

Kearney, Nebraska, USA
METAR KEAR 201957Z AUTO 34019G24KT 10SM OVC022 22/16 A3006 RMK AO2 PK WND 34027/1914 SLP166 T02170156
Observed Flight Rules
Aug-20 @ 19:57 UTC (34 minutes ago) Marginal Visual Flight Rules
Wind Visibility Clouds
340° at 19 knots
 Gusting to 24 knots
10 miles
  • Overcast at 2,200' AGL
Temperatures Readings
Current 22°C / 72°F
Dewpoint 16°C / 61°F
Humidity 69%
Altimeter 30.06" Hg
Pressure 1016.6 hPa
Elevation 649
METAR KEAR 201957Z AUTO 34019G24KT 10SM OVC022 22/16 A3006 RMK AO2 PK WND 34027/1914 SLP166 T02170156
Observed Flight Rules
Aug-20 @ 19:57 UTC
(34 minutes ago)
MVFR
Wind Visibility
340° at 19 knots
 Gusting to 24 knots
10 miles
Clouds
  • Overcast at 2,200' AGL
Temperature Dewpoint
22°C / 72°F 16°C / 61°F
Humidity Altimeter Pressure
69% 30.06" Hg 1016.6 hPa